Time;durP1;ratioP1;P1;durP2;ratioP2;P2;SDS_P1;SDS_P2;PMS_P1;PMS_P2;Temp;Humidity;BMP_temperature;BMP_pressure;BME280_temperature;BME280_humidity;BME280_pressure;Samples;Min_cycle;Max_cycle;Signal;HPM_P1;HPM_P2
2023/10/09 00:01:46;;;;;;;;;;;;;;;19.77;29.48;100902.16;4470871;32;34048;-72
2023/10/09 00:04:15;;;;;;;;;;;;;;;19.63;29.76;100893.00;4472108;32;33080;-74
2023/10/09 00:06:43;;;;;;;;;;;;;;;19.60;29.74;100883.28;4475287;32;33885;-73
2023/10/09 00:09:19;;;;;;;;;;;;;;;19.62;29.96;100885.94;4468967;32;33923;-74
2023/10/09 00:11:48;;;;;;;;;;;;;;;19.59;30.15;100881.53;4470971;32;33930;-70
2023/10/09 00:14:15;;;;;;;;;;;;;;;19.52;30.51;100876.94;4454490;32;33827;-72
2023/10/09 00:16:49;;;;;;;;;;;;;;;19.81;30.13;100879.44;4469921;32;34339;-70
2023/10/09 00:19:20;;;;;;;;;;;;;;;19.94;29.94;100880.66;4470710;32;35105;-73
2023/10/09 00:21:48;;;;;;;;;;;;;;;19.42;30.43;100883.72;4480748;32;35076;-69
2023/10/09 00:24:23;;;;;;;;;;;;;;;19.38;30.61;100884.47;4468891;32;34154;-70
2023/10/09 00:26:51;;;;;;;;;;;;;;;19.75;29.88;100872.31;4471562;32;33916;-72
2023/10/09 00:29:21;;;;;;;;;;;;;;;19.41;30.30;100870.53;4476784;32;34819;-72
2023/10/09 00:32:03;;;;;;;;;;;;;;;19.38;30.32;100867.84;4459900;32;34885;-70
2023/10/09 00:34:39;;;;;;;;;;;;;;;19.48;30.42;100871.59;4473794;32;34096;-72
2023/10/09 00:37:16;;;;;;;;;;;;;;;19.63;29.80;100871.97;4470095;32;33601;-70
2023/10/09 00:39:44;;;;;;;;;;;;;;;19.45;29.67;100865.41;4468238;32;33785;-72
2023/10/09 00:42:21;;;;;;;;;;;;;;;19.53;29.57;100869.94;4449757;32;32586;-71
2023/10/09 00:44:49;;;;;;;;;;;;;;;19.60;29.55;100864.88;4474491;32;33195;-74
2023/10/09 00:47:26;;;;;;;;;;;;;;;19.51;29.29;100864.69;4469560;32;34571;-69
2023/10/09 00:50:52;;;;;;;;;;;;;;;19.39;29.93;100861.72;4464899;32;34769;-72
2023/10/09 00:52:52;;;;;;;;;;;;;;;19.32;30.44;100855.44;4463892;32;34169;-70
2023/10/09 00:55:21;;;;;;;;;;;;;;;19.50;30.70;100855.00;4468333;32;33027;-72
2023/10/09 00:57:58;;;;;;;;;;;;;;;19.54;30.49;100861.22;4467584;32;33986;-71
2023/10/09 01:00:32;;;;;;;;;;;;;;;19.72;30.19;100858.19;4471894;32;33957;-70
2023/10/09 01:03:19;;;;;;;;;;;;;;;19.56;30.43;100865.66;4475752;32;34557;-70
2023/10/09 01:11:21;;;;;;;;;;;;;;;19.73;30.93;100868.75;4462462;32;33648;-73
2023/10/09 01:16:21;;;;;;;;;;;;;;;19.75;30.43;100855.66;4474411;32;33537;-69
2023/10/09 01:18:49;;;;;;;;;;;;;;;19.69;30.35;100855.47;4468599;32;34345;-75
2023/10/09 01:21:17;;;;;;;;;;;;;;;19.78;30.71;100864.50;4447819;32;34288;-69
2023/10/09 01:24:03;;;;;;;;;;;;;;;19.51;31.29;100876.91;4468657;32;34866;-72
2023/10/09 01:26:39;;;;;;;;;;;;;;;19.72;30.81;100877.50;4458350;32;34310;-69
2023/10/09 01:29:17;;;;;;;;;;;;;;;19.50;30.90;100869.88;4445994;32;34143;-70
2023/10/09 01:32:00;;;;;;;;;;;;;;;19.50;31.10;100869.88;4468550;32;33994;-72
2023/10/09 01:37:11;;;;;;;;;;;;;;;19.66;31.78;100872.03;4470327;32;33192;-75
2023/10/09 01:39:42;;;;;;;;;;;;;;;19.81;31.36;100882.06;4473592;32;34988;-70
2023/10/09 01:42:10;;;;;;;;;;;;;;;20.00;30.88;100868.53;4482020;32;33944;-71
2023/10/09 01:44:43;;;;;;;;;;;;;;;20.18;31.20;100868.03;4475091;32;33682;-74
2023/10/09 01:47:14;;;;;;;;;;;;;;;19.71;32.10;100875.69;4477196;32;33758;-71
2023/10/09 01:49:43;;;;;;;;;;;;;;;20.01;31.77;100864.13;4478181;32;33099;-70
2023/10/09 01:52:15;;;;;;;;;;;;;;;19.72;32.37;100887.09;4481955;32;34187;-74
2023/10/09 01:54:49;;;;;;;;;;;;;;;20.00;31.39;100872.91;4470240;32;34124;-73
2023/10/09 01:57:29;;;;;;;;;;;;;;;19.76;31.69;100881.97;4461501;32;33910;-72
2023/10/09 01:59:57;;;;;;;;;;;;;;;19.93;31.38;100892.00;4467771;32;33473;-71
2023/10/09 02:02:25;;;;;;;;;;;;;;;19.71;31.58;100888.81;4473218;32;33996;-71
2023/10/09 02:05:07;;;;;;;;;;;;;;;19.58;31.43;100897.25;4476893;32;34262;-75
2023/10/09 02:07:44;;;;;;;;;;;;;;;19.77;30.60;100890.75;4469259;32;34329;-75
2023/10/09 02:10:25;;;;;;;;;;;;;;;20.05;30.00;100892.31;4482484;32;33999;-74
2023/10/09 02:12:59;;;;;;;;;;;;;;;20.10;30.30;100882.78;4473116;32;33505;-69
2023/10/09 02:21:00;;;;;;;;;;;;;;;19.71;31.12;100870.41;4469293;32;34915;-74
2023/10/09 02:26:32;;;;;;;;;;;;;;;19.82;31.43;100860.22;4481272;32;34077;-73
2023/10/09 02:29:05;;;;;;;;;;;;;;;20.10;31.42;100869.62;4480020;32;33660;-70
2023/10/09 02:31:35;;;;;;;;;;;;;;;19.96;31.40;100848.25;4482094;32;33885;-70
2023/10/09 02:34:15;;;;;;;;;;;;;;;19.92;30.70;100863.94;4471646;32;33436;-71
2023/10/09 02:36:48;;;;;;;;;;;;;;;19.87;31.18;100868.19;4469110;32;34219;-74
2023/10/09 02:39:28;;;;;;;;;;;;;;;19.91;31.81;100856.91;4464282;32;32632;-73
2023/10/09 02:42:07;;;;;;;;;;;;;;;19.88;32.68;100851.59;4469299;32;34378;-72
2023/10/09 02:44:40;;;;;;;;;;;;;;;19.77;32.87;100867.97;4475285;32;34893;-74
2023/10/09 02:47:17;;;;;;;;;;;;;;;19.66;33.47;100853.63;4476242;32;34043;-72
2023/10/09 02:49:48;;;;;;;;;;;;;;;19.90;33.34;100848.13;4471617;32;33483;-70
2023/10/09 02:52:19;;;;;;;;;;;;;;;19.77;33.38;100839.03;4469150;32;34249;-74
2023/10/09 02:54:47;;;;;;;;;;;;;;;20.27;32.58;100824.41;4471088;32;34276;-73
2023/10/09 02:57:23;;;;;;;;;;;;;;;20.01;33.36;100835.22;4459418;32;34144;-71
2023/10/09 02:59:51;;;;;;;;;;;;;;;19.65;34.22;100822.97;4475169;32;33686;-71
2023/10/09 03:02:19;;;;;;;;;;;;;;;19.70;34.60;100839.75;4479375;32;34899;-71
2023/10/09 03:04:47;;;;;;;;;;;;;;;19.56;35.00;100846.38;4477771;32;34249;-73
2023/10/09 03:07:15;;;;;;;;;;;;;;;19.45;35.05;100835.59;4475655;32;33815;-73
2023/10/09 03:09:42;;;;;;;;;;;;;;;19.63;32.98;100840.44;4481623;32;32959;-71
2023/10/09 03:12:13;;;;;;;;;;;;;;;19.61;33.32;100842.12;4470889;32;34814;-72
2023/10/09 03:14:43;;;;;;;;;;;;;;;20.13;33.53;100837.25;4479612;32;33996;-72
2023/10/09 03:17:13;;;;;;;;;;;;;;;19.86;33.78;100821.72;4464885;32;33610;-72
2023/10/09 03:19:43;;;;;;;;;;;;;;;20.11;32.41;100823.16;4483063;32;33682;-74
2023/10/09 03:22:11;;;;;;;;;;;;;;;19.79;31.80;100821.56;4480773;32;34890;-69
2023/10/09 03:24:44;;;;;;;;;;;;;;;19.75;31.91;100822.34;4479083;32;34855;-75
2023/10/09 03:27:17;;;;;;;;;;;;;;;19.83;32.20;100818.16;4467888;32;33452;-72
2023/10/09 03:29:49;;;;;;;;;;;;;;;19.64;33.26;100813.28;4468295;32;33082;-72
2023/10/09 03:32:19;;;;;;;;;;;;;;;19.65;33.38;100815.06;4467667;32;34114;-74
2023/10/09 03:34:49;;;;;;;;;;;;;;;19.78;32.99;100801.41;4464657;32;34128;-72
2023/10/09 03:37:33;;;;;;;;;;;;;;;19.83;31.63;100812.00;4475026;32;34061;-71
2023/10/09 03:40:06;;;;;;;;;;;;;;;19.90;32.30;100810.44;4480991;32;33174;-71
2023/10/09 03:42:36;;;;;;;;;;;;;;;19.68;32.20;100817.75;4469408;32;33784;-72
2023/10/09 03:45:12;;;;;;;;;;;;;;;19.59;32.33;100822.81;4478310;32;34217;-72
2023/10/09 03:47:48;;;;;;;;;;;;;;;20.01;30.67;100827.31;4456643;32;33838;-73
2023/10/09 03:50:26;;;;;;;;;;;;;;;20.08;30.93;100823.97;4469874;32;33228;-73
2023/10/09 03:52:54;;;;;;;;;;;;;;;20.00;31.00;100820.31;4476915;32;33849;-71
2023/10/09 03:55:27;;;;;;;;;;;;;;;20.11;30.71;100823.16;4480905;32;34342;-70
2023/10/09 03:57:57;;;;;;;;;;;;;;;19.72;32.07;100819.66;4458130;32;33761;-70
2023/10/09 04:00:27;;;;;;;;;;;;;;;19.87;32.72;100812.97;4470579;32;33156;-71
2023/10/09 04:02:56;;;;;;;;;;;;;;;19.87;32.95;100813.84;4476554;32;33287;-74
2023/10/09 04:05:24;;;;;;;;;;;;;;;19.71;32.57;100811.72;4480705;32;34661;-73
2023/10/09 04:07:53;;;;;;;;;;;;;;;19.61;32.56;100802.72;4471632;32;35099;-74
2023/10/09 04:10:43;;;;;;;;;;;;;;;19.61;30.60;100810.59;4467457;32;33151;-73
2023/10/09 04:13:12;;;;;;;;;;;;;;;19.75;30.11;100813.59;4478098;32;34761;-70
2023/10/09 04:15:42;;;;;;;;;;;;;;;20.39;28.78;100808.88;4466022;32;32446;-71
2023/10/09 04:18:15;;;;;;;;;;;;;;;20.12;29.00;100803.91;4470610;32;34037;-70
2023/10/09 04:23:36;;;;;;;;;;;;;;;19.75;29.48;100803.06;4472616;32;34636;-75
2023/10/09 04:26:14;;;;;;;;;;;;;;;19.62;29.32;100808.00;4474060;32;34037;-71
2023/10/09 04:28:42;;;;;;;;;;;;;;;19.87;28.69;100797.19;4469189;32;34579;-70
2023/10/09 04:31:14;;;;;;;;;;;;;;;19.55;29.05;100789.44;4475237;32;33429;-72
2023/10/09 04:33:54;;;;;;;;;;;;;;;19.76;28.58;100795.22;4475159;32;35566;-70
2023/10/09 04:36:22;;;;;;;;;;;;;;;19.80;28.79;100791.81;4474790;32;35053;-70
2023/10/09 04:41:52;;;;;;;;;;;;;;;19.49;29.28;100784.00;4469580;32;33329;-74
2023/10/09 04:44:19;;;;;;;;;;;;;;;19.77;29.03;100783.84;4472541;32;33818;-73
2023/10/09 05:02:58;;;;;;;;;;;;;;;18.59;30.67;100765.91;4469204;32;33254;-73
2023/10/09 05:16:15;;;;;;;;;;;;;;;19.89;30.40;100748.16;4472445;32;34745;-72
2023/10/09 05:18:45;;;;;;;;;;;;;;;19.42;30.96;100762.84;4474106;32;33933;-76
2023/10/09 05:24:09;;;;;;;;;;;;;;;19.82;29.23;100729.63;4469963;32;34090;-73
2023/10/09 05:26:51;;;;;;;;;;;;;;;19.44;29.45;100740.12;4474838;32;34088;-73
2023/10/09 05:29:47;;;;;;;;;;;;;;;19.08;29.53;100753.22;4479950;32;33922;-72
2023/10/09 05:32:15;;;;;;;;;;;;;;;19.73;29.44;100758.34;4472944;32;35055;-73
2023/10/09 05:37:34;;;;;;;;;;;;;;;20.26;28.27;100738.41;4460781;32;33992;-70
2023/10/09 05:47:53;;;;;;;;;;;;;;;20.13;28.18;100775.00;4469387;32;33455;-71
2023/10/09 06:03:26;;;;;;;;;;;;;;;20.64;27.03;100756.75;4461479;32;33701;-79
2023/10/09 06:22:56;;;;;;;4.25;1.42;;;;;;;16.24;33.98;100725.16;4504440;31;169816;-69
2023/10/09 06:25:32;;;;;;;4.22;1.40;;;;;;;16.24;33.98;100725.16;4494992;31;33141;-69
2023/10/09 06:28:01;;;;;;;4.22;1.73;;;;;;;15.29;35.01;100731.94;4500741;31;34356;-69
2023/10/09 06:30:34;;;;;;;4.40;1.52;;;;;;;15.43;34.83;100730.78;4497445;31;33955;-69
2023/10/09 06:35:35;;;;;;;4.50;1.35;;;;;;;15.49;35.24;100725.78;4494414;31;33399;-69
2023/10/09 06:41:34;;;;;;;5.32;1.55;;;;;;;15.75;34.39;100728.56;4478422;31;33617;-69
2023/10/09 06:43:53;;;;;;;6.43;1.33;;;;;;;15.45;34.46;100729.13;4499539;31;33384;-71
2023/10/09 06:49:28;;;;;;;9.60;1.65;;;;;;;15.65;34.57;100731.63;4503637;31;34626;-72
2023/10/09 06:51:42;;;;;;;3.97;1.12;;;;;;;15.46;35.03;100730.00;4503983;31;34574;-71
2023/10/09 06:54:14;;;;;;;5.93;1.20;;;;;;;15.30;34.03;100738.94;4505981;31;33857;-71
2023/10/09 06:59:24;;;;;;;3.58;0.93;;;;;;;15.57;34.08;100719.97;4506342;31;34506;-71
2023/10/09 07:32:54;;;;;;;3.58;1.20;;;;;;;15.67;35.34;100682.94;4498100;31;33769;-70
2023/10/09 07:38:20;;;;;;;2.85;1.02;;;;;;;15.63;36.42;100654.94;4478319;31;34051;-70
2023/10/09 07:43:45;;;;;;;;;;;;;;;14.92;34.05;100623.47;4492541;31;34143;-70
2023/10/09 07:49:12;;;;;;;;;;;;;;;14.31;34.73;100619.16;4494224;31;34644;-70
2023/10/09 07:51:43;;;;;;;;;;;;;;;15.28;34.88;100604.88;4492202;31;34769;-71
2023/10/09 07:54:14;;;;;;;;;;;;;;;15.22;35.13;100594.16;4496103;32;33831;-70
2023/10/09 07:56:45;;;;;;;;;;;;;;;15.35;33.48;100591.22;4496352;31;34663;-69
2023/10/09 07:59:13;;;;;;;;;;;;;;;15.24;35.54;100592.50;4492046;31;34125;-69
2023/10/09 08:01:52;;;;;;;;;;;;;;;15.10;33.61;100587.69;4492909;32;34025;-70
2023/10/09 08:04:37;;;;;;;;;;;;;;;15.47;33.29;100591.69;4492333;31;32815;-69
2023/10/09 08:07:09;;;;;;;;;;;;;;;15.57;35.28;100592.00;4493567;31;34423;-71
2023/10/09 08:15:20;;;;;;;;;;;;;;;14.94;32.18;100593.97;4508231;31;33200;-71
2023/10/09 08:17:54;;;;;;;;;;;;;;;15.45;33.66;100587.22;4496093;32;34764;-70
2023/10/09 08:20:25;;;;;;;;;;;;;;;15.60;32.43;100577.34;4480406;32;35391;-70
2023/10/09 08:22:55;;;;;;;2.20;0.95;;;;;;;15.87;32.80;100571.38;4478223;32;33937;-69
2023/10/09 08:25:28;;;;;;;3.72;0.70;;;;;;;16.05;32.67;100560.69;4480008;32;33392;-70
2023/10/09 08:36:04;;;;;;;2.08;0.60;;;;;;;16.17;31.97;100549.75;4468457;32;33706;-69
2023/10/09 08:38:35;;;;;;;2.87;0.80;;;;;;;16.20;31.85;100548.13;4467558;32;33941;-70
2023/10/09 08:41:09;;;;;;;3.80;0.98;;;;;;;15.70;31.15;100536.78;4463233;32;33758;-71
2023/10/09 08:43:37;;;;;;;5.85;0.90;;;;;;;16.07;30.44;100527.66;4469092;32;33764;-70
2023/10/09 08:46:05;;;;;;;2.25;0.77;;;;;;;16.20;30.92;100535.06;4464735;32;32809;-69
2023/10/09 09:09:56;;;;;;;4.25;0.73;;;;;;;17.24;29.61;100515.69;4497964;31;187528;-69
2023/10/09 09:12:28;;;;;;;3.97;0.90;;;;;;;17.48;27.96;100503.31;4495307;31;32969;-69
2023/10/09 09:14:57;;;;;;;4.87;0.90;;;;;;;17.96;28.46;100483.63;4504808;31;33241;-69
2023/10/09 09:17:32;;;;;;;4.82;0.80;;;;;;;18.17;28.40;100492.88;4510376;31;33872;-69
2023/10/09 09:20:22;;;;;;;4.18;1.08;;;;;;;18.13;28.20;100486.69;4511224;31;33377;-69
2023/10/09 09:22:56;;;;;;;3.30;0.95;;;;;;;18.54;27.61;100488.53;4495479;31;34550;-69
2023/10/09 09:25:24;;;;;;;2.42;0.73;;;;;;;18.70;28.58;100498.53;4502969;31;33988;-69
2023/10/09 09:27:54;;;;;;;5.25;1.12;;;;;;;19.09;26.95;100495.06;4508142;31;34731;-69
2023/10/09 09:30:24;;;;;;;5.30;0.85;;;;;;;19.31;27.34;100490.25;4499963;31;34277;-69
2023/10/09 09:33:15;;;;;;;2.70;0.80;;;;;;;19.39;26.96;100488.66;4504792;31;34383;-69
2023/10/09 09:35:39;;;;;;;3.30;0.80;;;;;;;19.30;26.58;100478.84;4506495;31;33741;-70
2023/10/09 09:38:07;;;;;;;4.80;1.15;;;;;;;18.97;27.43;100477.31;4496515;31;32242;-69
2023/10/09 09:40:41;;;;;;;4.12;1.12;;;;;;;19.60;26.04;100488.19;4493359;32;33387;-70
2023/10/09 09:43:21;;;;;;;3.17;1.00;;;;;;;19.99;26.30;100484.53;4509042;31;33543;-70
2023/10/09 09:45:52;;;;;;;2.70;0.95;;;;;;;19.52;25.54;100490.66;4496727;31;33973;-70
2023/10/09 09:48:22;;;;;;;2.85;0.80;;;;;;;19.33;25.48;100489.41;4498035;31;33384;-69
2023/10/09 09:50:54;;;;;;;4.07;0.80;;;;;;;19.41;26.21;100477.34;4496641;31;33496;-69
2023/10/09 09:53:23;;;;;;;4.18;0.88;;;;;;;19.69;25.68;100462.06;4504338;31;33447;-69
2023/10/09 09:55:55;;;;;;;6.57;1.27;;;;;;;19.66;25.50;100462.00;4502357;31;33850;-69
2023/10/09 09:58:32;;;;;;;4.43;1.15;;;;;;;19.70;25.91;100463.87;4487451;31;34466;-70
2023/10/09 10:01:15;;;;;;;3.28;0.90;;;;;;;19.72;26.19;100469.16;4492607;31;33660;-70
2023/10/09 10:03:53;;;;;;;7.07;1.02;;;;;;;19.79;25.81;100453.53;4490761;32;34340;-70
2023/10/09 10:06:21;;;;;;;3.20;0.80;;;;;;;19.90;26.48;100456.34;4491974;32;34503;-69
2023/10/09 10:08:51;;;;;;;4.85;0.93;;;;;;;18.93;25.74;100456.19;4490500;31;34365;-68
2023/10/09 10:11:52;;;;;;;6.18;0.90;;;;;;;19.72;26.35;100451.66;4475799;32;33034;-70
2023/10/09 10:14:31;;;;;;;3.28;0.82;;;;;;;20.13;26.42;100427.81;4475758;32;33790;-70
2023/10/09 10:17:21;;;;;;;3.25;1.02;;;;;;;19.62;24.83;100412.88;4476172;32;33602;-70
2023/10/09 10:22:47;;;;;;;4.78;1.05;;;;;;;19.32;27.14;100356.31;4470376;32;35057;-69
2023/10/09 10:25:32;;;;;;;3.95;0.88;;;;;;;19.69;26.65;100383.22;4476434;32;32360;-70
2023/10/09 10:28:38;;;;;;;7.75;1.08;;;;;;;20.01;25.97;100377.62;4470747;32;33469;-70
2023/10/09 10:31:09;;;;;;;3.83;0.98;;;;;;;20.29;26.32;100362.28;4472805;32;33768;-69
2023/10/09 10:33:55;;;;;;;2.33;0.95;;;;;;;20.00;25.65;100349.59;4478637;32;32346;-70
2023/10/09 10:36:26;;;;;;;4.72;1.25;;;;;;;19.77;25.77;100344.84;4477319;31;33909;-70
2023/10/09 10:39:05;;;;;;;6.50;0.90;;;;;;;20.29;26.15;100338.59;4481241;32;33737;-69
2023/10/09 10:41:51;;;;;;;3.30;1.00;;;;;;;20.30;25.65;100340.34;4473752;32;34631;-70
2023/10/09 10:44:38;;;;;;;5.43;0.98;;;;;;;20.46;26.01;100341.47;4472767;32;33758;-69
2023/10/09 10:47:24;;;;;;;4.62;1.20;;;;;;;20.74;26.35;100326.91;4476108;32;33421;-69
2023/10/09 10:50:07;;;;;;;4.50;1.00;;;;;;;20.72;25.53;100313.72;4477271;32;33336;-70
2023/10/09 10:52:35;;;;;;;6.05;0.95;;;;;;;20.28;24.79;100314.06;4482024;32;33688;-69
2023/10/09 10:58:13;;;;;;;12.20;1.75;;;;;;;20.76;25.66;100305.00;4471101;32;33519;-69
2023/10/09 11:01:11;;;;;;;3.53;1.00;;;;;;;20.62;24.57;100302.22;4479019;32;33796;-69
2023/10/09 11:03:54;;;;;;;3.62;1.12;;;;;;;20.77;28.25;100314.69;4473009;32;34685;-70
2023/10/09 11:06:37;;;;;;;2.90;0.93;;;;;;;21.17;25.14;100291.41;4480072;32;33659;-69
2023/10/09 11:09:21;;;;;;;5.30;1.15;;;;;;;21.52;24.50;100298.75;4472555;32;33299;-69
2023/10/09 11:11:55;;;;;;;4.25;1.27;;;;;;;21.38;23.36;100280.19;4476588;32;34447;-69
2023/10/09 11:14:23;;;;;;;4.20;1.10;;;;;;;20.48;24.59;100251.16;4472401;32;33944;-69
2023/10/09 11:16:57;;;;;;;3.85;1.23;;;;;;;21.18;25.67;100265.94;4467716;32;33598;-69
2023/10/09 11:19:29;;;;;;;9.77;1.52;;;;;;;21.40;24.52;100302.16;4472030;32;33973;-70
2023/10/09 11:24:35;;;;;;;4.50;1.42;;;;;;;22.06;24.08;100275.41;4480393;32;33502;-69
2023/10/09 11:27:07;;;;;;;4.93;1.30;;;;;;;22.05;23.29;100289.44;4478426;32;34371;-71
2023/10/09 11:32:25;;;;;;;9.25;1.08;;;;;;;22.12;24.66;100254.31;4470825;32;33868;-70
2023/10/09 11:35:11;;;;;;;3.97;1.45;;;;;;;22.49;23.59;100280.91;4453205;32;33202;-70
2023/10/09 11:37:42;;;;;;;6.05;1.10;;;;;;;22.28;24.23;100280.81;4476108;32;33417;-70
2023/10/09 11:41:03;;;;;;;4.28;1.23;;;;;;;22.47;23.83;100269.47;4471619;32;33359;-70
2023/10/09 11:43:50;;;;;;;6.57;0.90;;;;;;;22.88;23.94;100284.53;4473771;32;33822;-71
2023/10/09 11:46:36;;;;;;;3.90;1.10;;;;;;;22.99;24.34;100307.47;4479562;32;33858;-69
2023/10/09 11:54:35;;;;;;;2.17;0.90;;;;;;;22.86;24.41;100299.50;4470066;32;34550;-71
2023/10/09 11:57:03;;;;;;;4.32;1.23;;;;;;;22.79;24.62;100289.78;4472463;32;33758;-71
2023/10/09 11:59:37;;;;;;;3.10;1.05;;;;;;;22.63;25.08;100294.16;4475003;32;33529;-70
2023/10/09 12:02:13;;;;;;;4.75;1.00;;;;;;;22.86;24.57;100254.59;4474737;32;33877;-70
2023/10/09 12:04:44;;;;;;;2.95;1.23;;;;;;;22.68;25.02;100259.84;4471101;32;34295;-70
2023/10/09 12:07:14;;;;;;;6.28;1.20;;;;;;;22.46;25.30;100257.13;4471805;32;34691;-70
2023/10/09 12:09:42;;;;;;;6.97;1.30;;;;;;;22.40;25.37;100259.75;4466888;32;33678;-70
2023/10/09 12:12:10;;;;;;;6.75;1.70;;;;;;;22.38;26.01;100272.06;4468426;32;32457;-70
2023/10/09 12:14:39;;;;;;;7.55;1.23;;;;;;;22.16;26.43;100260.50;4477360;32;32217;-70
2023/10/09 12:17:08;;;;;;;11.77;2.42;;;;;;;21.99;28.28;100252.50;4474414;32;33919;-71
2023/10/09 12:19:38;;;;;;;;;;;;;;;21.60;28.65;100227.66;4474021;32;33347;-71
2023/10/09 12:22:06;;;;;;;;;;;;;;;21.91;27.24;100225.19;4473134;32;33062;-69
2023/10/09 12:24:34;;;;;;;;;;;;;;;21.68;28.26;100215.38;4476320;32;34237;-70
2023/10/09 12:27:01;;;;;;;;;;;;;;;21.57;28.99;100217.06;4473010;32;35029;-70
2023/10/09 12:29:30;;;;;;;;;;;;;;;21.52;29.19;100224.97;4474534;32;33581;-71
2023/10/09 12:32:01;;;;;;;;;;;;;;;21.57;30.28;100230.25;4469639;32;34038;-70
2023/10/09 12:34:30;;;;;;;;;;;;;;;21.59;30.63;100220.59;4472802;32;33498;-70
2023/10/09 12:37:01;;;;;;;;;;;;;;;21.66;31.29;100206.59;4469352;32;34417;-70
2023/10/09 12:39:33;;;;;;;;;;;;;;;21.54;30.94;100201.25;4477308;32;33145;-70
2023/10/09 12:42:06;;;;;;;;;;;;;;;21.43;32.48;100187.09;4476263;32;31936;-71
2023/10/09 12:44:42;;;;;;;;;;;;;;;21.61;32.80;100203.03;4472958;32;34403;-70
2023/10/09 12:47:13;;;;;;;;;;;;;;;21.55;32.54;100208.28;4472233;32;35554;-70
2023/10/09 12:49:42;;;;;;;;;;;;;;;21.61;32.95;100205.66;4475671;32;34054;-70
2023/10/09 12:52:15;;;;;;;;;;;;;;;21.57;34.24;100217.06;4474411;32;33602;-71
2023/10/09 12:54:46;;;;;;;;;;;;;;;21.51;34.80;100217.91;4477625;32;34751;-70
2023/10/09 12:57:13;;;;;;;;;;;;;;;21.51;34.44;100204.72;4477247;32;33845;-70
2023/10/09 12:59:45;;;;;;;;;;;;;;;21.41;33.71;100194.97;4472596;32;34084;-70
2023/10/09 13:02:27;;;;;;;;;;;;;;;21.45;33.98;100196.78;4475670;32;33124;-70
2023/10/09 13:05:00;;;;;;;;;;;;;;;21.78;33.29;100190.81;4472877;32;34399;-70
2023/10/09 13:07:29;;;;;;;;;;;;;;;21.58;33.31;100184.59;4474125;32;34154;-70
2023/10/09 13:10:08;;;;;;;;;;;;;;;21.61;33.28;100187.22;4468015;32;33844;-70
2023/10/09 13:12:41;;;;;;;;;;;;;;;21.37;33.54;100201.97;4471913;32;32909;-70
2023/10/09 13:15:09;;;;;;;;;;;;;;;21.36;34.04;100202.87;4474928;32;34265;-70
2023/10/09 13:17:37;;;;;;;;;;;;;;;21.39;33.81;100168.59;4473543;32;33757;-70
2023/10/09 13:20:15;;;;;;;;;;;;;;;21.31;34.69;100180.84;4471738;32;34387;-71
2023/10/09 13:22:46;;;;;;;;;;;;;;;21.10;34.35;100172.78;4473697;32;32548;-70
2023/10/09 13:25:16;;;;;;;;;;;;;;;21.04;35.22;100189.44;4477138;32;34163;-70
2023/10/09 13:28:03;;;;;;;;;;;;;;;21.02;35.74;100175.38;4478755;32;34955;-71
2023/10/09 13:30:38;;;;;;;;;;;;;;;21.04;36.24;100178.03;4470523;32;34529;-70
2023/10/09 13:33:07;;;;;;;;;;;;;;;20.93;36.90;100164.75;4469796;32;33692;-70
2023/10/09 13:35:45;;;;;;;;;;;;;;;21.04;37.61;100173.63;4476219;32;34324;-71
2023/10/09 13:38:14;;;;;;;;;;;;;;;20.91;38.85;100174.38;4468842;32;33567;-71
2023/10/09 13:40:42;;;;;;;;;;;;;;;20.85;40.14;100182.25;4475320;32;34015;-70
2023/10/09 13:43:16;;;;;;;;;;;;;;;20.81;40.72;100186.59;4475453;32;33398;-70
2023/10/09 13:45:50;;;;;;;;;;;;;;;20.41;41.45;100186.16;4480262;32;33413;-70
2023/10/09 13:48:18;;;;;;;;;;;;;;;20.34;42.88;100179.03;4480748;32;34022;-70
2023/10/09 13:50:47;;;;;;;;;;;;;;;20.50;42.96;100178.34;4475370;32;34653;-70
2023/10/09 13:53:15;;;;;;;;;;;;;;;20.19;44.15;100180.66;4469893;32;33397;-71
2023/10/09 13:55:43;;;;;;;;;;;;;;;20.16;44.52;100167.44;4478341;32;33817;-70
2023/10/09 13:58:13;;;;;;;;;;;;;;;20.07;44.96;100164.75;4481905;32;33952;-69
2023/10/09 14:00:46;;;;;;;;;;;;;;;20.09;44.24;100163.00;4475218;32;32445;-69
2023/10/09 14:03:14;;;;;;;;;;;;;;;19.97;45.41;100173.34;4471371;32;32833;-71
2023/10/09 14:05:54;;;;;;;;;;;;;;;20.09;46.64;100160.38;4480067;32;33988;-72
2023/10/09 14:08:22;;;;;;;;;;;;;;;19.94;45.96;100157.56;4480386;32;34193;-72
2023/10/09 14:10:49;;;;;;;;;;;;;;;19.82;46.94;100156.53;4471637;32;34775;-71
2023/10/09 14:13:25;;;;;;;;;;;;;;;19.73;46.97;100142.41;4483593;32;33426;-70
2023/10/09 14:15:54;;;;;;;;;;;;;;;19.68;48.04;100138.78;4473366;32;33538;-70
2023/10/09 14:18:21;;;;;;;;;;;;;;;19.71;49.15;100150.22;4478875;32;33944;-71
2023/10/09 14:20:49;;;;;;;;;;;;;;;19.57;49.11;100151.78;4477493;32;34085;-71
2023/10/09 14:23:20;;;;;;;;;;;;;;;19.58;49.02;100153.53;4475468;32;34057;-70
2023/10/09 14:25:49;;;;;;;;;;;;;;;19.74;48.96;100145.06;4471619;32;35076;-68
2023/10/09 14:28:18;;;;;;;;;;;;;;;19.74;49.26;100139.78;4479731;32;33564;-69
2023/10/09 14:30:50;;;;;;;;;;;;;;;19.71;50.14;100142.34;4471534;32;32323;-67
2023/10/09 14:33:22;;;;;;;;;;;;;;;19.58;50.93;100149.16;4319501;26;34250;-68
2023/10/09 14:35:52;;;;;;;;;;;;;;;19.53;51.75;100157.84;4460125;32;31602;-70
2023/10/09 14:38:26;;;;;;;;;;;;;;;19.37;52.65;100155.03;4459957;32;33789;-68
2023/10/09 14:41:00;;;;;;;;;;;;;;;19.24;53.30;100153.06;4459653;32;32194;-68
2023/10/09 14:43:28;;;;;;;;;;;;;;;19.04;54.10;100147.50;4456866;32;33794;-67
2023/10/09 14:45:55;;;;;;;;;;;;;;;18.87;55.20;100152.47;4458264;32;33793;-68
2023/10/09 14:48:25;;;;;;;;;;;;;;;18.71;55.67;100155.66;4462985;32;32813;-68
2023/10/09 14:50:53;;;;;;;;;;;;;;;18.79;55.93;100154.91;4460671;32;34642;-67
2023/10/09 14:53:21;;;;;;;;;;;;;;;18.74;56.29;100158.34;4455335;32;33451;-67
2023/10/09 14:55:56;;;;;;;;;;;;;;;18.62;56.57;100162.53;4463894;32;34001;-68
2023/10/09 14:58:25;;;;;;;;;;;;;;;18.51;56.89;100148.31;4458263;32;33969;-69
2023/10/09 15:00:53;;;;;;;;;;;;;;;18.48;57.19;100143.00;4467058;32;34746;-67
2023/10/09 15:03:22;;;;;;;;;;;;;;;18.33;57.83;100129.59;4466969;32;32657;-66
2023/10/09 15:05:50;;;;;;;;;;;;;;;18.32;57.72;100130.47;4466603;32;34002;-68
2023/10/09 15:08:17;;;;;;;;;;;;;;;18.04;58.56;100129.94;4465029;32;34773;-69
2023/10/09 15:10:48;;;;;;;;;;;;;;;18.14;58.65;100126.66;4464268;32;35901;-69
2023/10/09 15:13:18;;;;;;;;;;;;;;;18.09;58.88;100117.81;4457804;32;32639;-69
2023/10/09 15:15:50;;;;;;;;;;;;;;;17.95;59.55;100124.53;4461073;32;33229;-69
2023/10/09 15:18:21;;;;;;;;;;;;;;;18.07;59.38;100120.41;4463246;32;33842;-68
2023/10/09 15:20:49;;;;;;;;;;;;;;;17.96;59.96;100115.78;4462497;32;34865;-69
2023/10/09 15:23:16;;;;;;;;;;;;;;;17.92;60.22;100109.59;4458601;32;33125;-67
2023/10/09 15:25:49;;;;;;;;;;;;;;;17.85;60.25;100113.84;4461341;32;34104;-68
2023/10/09 15:28:17;;;;;;;;;;;;;;;17.85;60.54;100113.84;4460784;32;35071;-67
2023/10/09 15:30:47;;;;;;;;;;;;;;;17.97;60.13;100110.59;4459853;32;35042;-68
2023/10/09 15:33:16;;;;;;;;;;;;;;;17.94;60.17;100118.37;4458016;32;34508;-67
2023/10/09 15:35:46;;;;;;;;;;;;;;;17.77;60.78;100115.41;4459393;32;34321;-65
2023/10/09 15:38:13;;;;;;;;;;;;;;;17.67;61.24;100113.44;4456173;32;33641;-68
2023/10/09 15:40:43;;;;;;;;;;;;;;;17.67;61.50;100119.56;4464075;32;33519;-68
2023/10/09 15:43:13;;;;;;;;;;;;;;;17.63;61.80;100111.59;4460448;32;33208;-67
2023/10/09 15:45:42;;;;;;;;;;;;;;;17.75;62.11;100114.50;4463662;32;33256;-66
2023/10/09 15:48:13;;;;;;;;;;;;;;;17.90;61.60;100108.69;4462371;32;34219;-68
2023/10/09 15:50:48;;;;;;;;;;;;;;;17.95;61.39;100106.19;4467235;32;34785;-67
2023/10/09 15:53:18;;;;;;;;;;;;;;;17.88;61.57;100092.94;4467138;32;33359;-68
2023/10/09 15:55:53;;;;;;;;;;;;;;;18.11;61.11;100094.25;4467447;32;34440;-68
2023/10/09 15:58:21;;;;;;;;;;;;;;;18.03;61.16;100096.72;4466059;32;34766;-66
2023/10/09 16:00:48;;;;;;;;;;;;;;;18.04;61.02;100098.47;4467021;32;34811;-66